.
WxDataArchive / Data Records for 2011-06-03
2011-06-02 June 2011 2011-06-04

Data Records for Friday, 03 June 2011

Time	Temp	Chill	HIndex	Humid	Dewpt	 Wind 	HiWind	WindDir	Rain 	Barom 
-----	----	-----	------	-----	-----	------	------	-------	-----	----- 
00:00	60.4	60.4	60.4	77	53.2	0	0	---	0.00	30.167 
00:05	60.4	60.4	60.4	75	52.4	0	0	---	0.00	30.167 
00:10	60.2	60.2	60.2	75	52.2	0	0	---	0.00	30.167 
00:15	60.4	60.4	60.4	73	51.7	0	1	90	0.00	30.166 
00:20	60.9	60.9	60.9	70	51.0	0	2	90	0.00	30.166 
00:25	61.5	61.5	61.5	69	51.2	0	1	90	0.00	30.166 
00:30	61.8	61.8	61.8	68	51.1	0	2	90	0.00	30.166 
00:35	62.3	62.3	62.3	67	51.2	1	2	90	0.00	30.166 
00:40	62.4	62.4	62.4	65	50.5	1	3	90	0.00	30.166 
00:45	62.4	62.4	62.4	66	50.9	1	3	90	0.00	30.164 
00:50	62.4	62.4	62.4	65	50.5	0	2	90	0.00	30.164 
00:55	62.3	62.3	62.3	65	50.4	0	1	90	0.00	30.164 
01:00	62.3	62.3	62.3	66	50.8	0	1	90	0.00	30.165 
01:05	62.1	62.1	62.1	67	51.0	0	2	90	0.00	30.165 
01:10	61.8	61.8	61.8	68	51.1	1	2	90	0.00	30.165 
01:15	61.5	61.5	61.5	69	51.2	1	3	90	0.00	30.161 
01:20	61.3	61.3	61.3	69	51.0	0	2	90	0.00	30.161 
01:25	61.0	61.0	61.0	69	50.8	0	2	90	0.00	30.161 
01:30	60.9	60.9	60.9	69	50.7	1	3	90	0.00	30.159 
01:35	60.9	60.9	60.9	69	50.7	0	2	90	0.00	30.159 
01:40	60.7	60.7	60.7	69	50.5	1	3	90	0.00	30.159 
01:45	60.7	60.7	60.7	68	50.1	1	2	90	0.00	30.155 
01:50	60.5	60.5	60.5	68	49.9	0	2	90	0.00	30.155 
01:55	60.5	60.5	60.5	68	49.9	0	3	90	0.00	30.155 
02:00	60.4	60.4	60.4	68	49.8	0	2	90	0.00	30.154 
02:05	60.4	60.4	60.4	68	49.8	0	1	90	0.00	30.154 
02:10	60.2	60.2	60.2	68	49.6	0	1	90	0.00	30.154 
02:15	60.1	60.1	60.1	68	49.5	0	2	90	0.00	30.155 
02:20	59.9	59.9	59.9	68	49.3	0	2	90	0.00	30.155 
02:25	59.8	59.8	59.8	69	49.6	0	1	90	0.00	30.155 
02:30	59.8	59.8	59.8	69	49.6	0	1	90	0.00	30.153 
02:35	59.6	59.6	59.6	70	49.8	0	0	---	0.00	30.153 
02:40	59.3	59.3	59.3	70	49.5	0	0	---	0.00	30.153 
02:45	59.2	59.2	59.2	72	50.2	0	0	---	0.00	30.153 
02:50	58.9	58.9	58.9	72	49.9	0	1	90	0.00	30.153 
02:55	58.9	58.9	58.9	72	49.9	0	2	90	0.00	30.153 
03:00	58.7	58.7	58.7	72	49.7	0	3	90	0.00	30.149 
03:05	58.7	58.7	58.7	72	49.7	0	1	90	0.00	30.149 
03:10	58.7	58.7	58.7	72	49.7	0	1	90	0.00	30.149 
03:15	58.7	58.7	58.7	72	49.7	0	2	90	0.00	30.150 
03:20	58.9	58.9	58.9	73	50.3	0	4	90	0.00	30.150 
03:25	58.9	58.9	58.9	72	49.9	0	4	90	0.00	30.150 
03:30	58.9	58.9	58.9	72	49.9	0	1	90	0.00	30.151 
03:35	59.0	59.0	59.0	73	50.4	0	2	90	0.00	30.151 
03:40	59.0	59.0	59.0	73	50.4	0	2	90	0.00	30.151 
03:45	59.2	59.2	59.2	73	50.5	0	3	90	0.00	30.151 
03:50	59.2	59.2	59.2	73	50.5	0	2	90	0.00	30.151 
03:55	59.2	59.2	59.2	73	50.5	1	2	90	0.00	30.151 
04:00	59.2	59.2	59.2	73	50.5	1	3	90	0.00	30.151 
04:05	59.2	59.2	59.2	73	50.5	0	3	90	0.00	30.151 
04:10	59.2	59.2	59.2	72	50.2	0	2	90	0.00	30.151 
04:15	59.2	59.2	59.2	72	50.2	1	2	90	0.00	30.148 
04:20	59.3	59.3	59.3	71	49.9	0	4	90	0.00	30.148 
04:25	59.3	59.3	59.3	69	49.1	0	2	90	0.00	30.148 
04:30	59.3	59.3	59.3	69	49.1	1	4	90	0.00	30.148 
04:35	59.3	59.3	59.3	69	49.1	1	4	90	0.00	30.148 
04:40	59.3	59.3	59.3	69	49.1	1	3	90	0.00	30.148 
04:45	59.3	59.3	59.3	69	49.1	0	2	90	0.00	30.150 
04:50	59.5	59.5	59.5	70	49.7	1	4	90	0.00	30.150 
04:55	59.3	59.3	59.3	69	49.1	1	4	90	0.00	30.150 
05:00	59.3	59.3	59.3	70	49.5	1	3	90	0.00	30.152 
05:05	59.2	59.2	59.2	70	49.4	1	3	90	0.00	30.152 
05:10	59.2	59.2	59.2	70	49.4	1	4	90	0.00	30.152 
05:15	59.2	59.2	59.2	70	49.4	0	1	90	0.00	30.160 
05:20	59.2	59.2	59.2	70	49.4	1	4	90	0.00	30.160 
05:25	59.2	59.2	59.2	70	49.4	0	3	90	0.00	30.160 
05:30	59.2	59.2	59.2	70	49.4	1	3	90	0.00	30.162 
05:35	59.3	59.3	59.3	71	49.9	1	5	90	0.00	30.162 
05:40	59.2	59.2	59.2	71	49.8	1	4	90	0.00	30.162 
05:45	59.2	59.2	59.2	72	50.2	0	1	90	0.00	30.177 
05:50	59.0	59.0	59.0	71	49.6	0	2	90	0.00	30.177 
05:55	59.0	59.0	59.0	71	49.6	0	2	90	0.00	30.177 
06:00	59.0	59.0	59.0	71	49.6	0	2	90	0.00	30.181 
06:05	59.0	59.0	59.0	72	50.0	0	3	90	0.00	30.181 
06:10	58.9	58.9	58.9	74	50.6	0	2	90	0.00	30.181 
06:15	58.9	58.9	58.9	75	51.0	0	1	90	0.00	30.188 
06:20	58.7	58.7	58.7	75	50.8	0	2	90	0.00	30.188 
06:25	58.7	58.7	58.7	75	50.8	2	3	90	0.00	30.188 
06:30	58.6	58.6	58.6	73	50.0	2	5	90	0.00	30.180 
06:35	58.6	58.6	58.6	73	50.0	1	4	90	0.00	30.180 
06:40	58.7	58.7	58.7	73	50.1	2	6	112	0.00	30.180 
06:45	58.7	58.7	58.7	73	50.1	0	3	90	0.00	30.185 
06:50	58.7	58.7	58.7	72	49.7	0	2	90	0.00	30.185 
06:55	58.7	58.7	58.7	72	49.7	0	2	90	0.00	30.185 
07:00	58.9	58.9	58.9	72	49.9	0	2	90	0.00	30.191 
07:05	58.9	58.9	58.9	72	49.9	1	2	90	0.00	30.191 
07:10	58.9	58.9	58.9	71	49.5	1	4	68	0.00	30.191 
07:15	59.0	59.0	59.0	71	49.6	0	2	68	0.00	30.199 
07:20	59.0	59.0	59.0	71	49.6	0	1	68	0.00	30.199 
07:25	59.0	59.0	59.0	70	49.2	0	2	68	0.00	30.199 
07:30	59.2	59.2	59.2	70	49.4	1	3	68	0.00	30.199 
07:35	59.2	59.2	59.2	70	49.4	1	3	68	0.00	30.199 
07:40	59.3	59.3	59.3	70	49.5	1	2	68	0.00	30.199 
07:45	59.3	59.3	59.3	69	49.1	1	3	68	0.00	30.203 
07:50	59.5	59.5	59.5	69	49.3	1	2	68	0.00	30.203 
07:55	59.5	59.5	59.5	69	49.3	0	3	68	0.00	30.203 
08:00	59.5	59.5	59.5	70	49.7	0	1	68	0.00	30.210 
08:05	59.6	59.6	59.6	70	49.8	0	3	68	0.00	30.210 
08:10	59.8	59.8	59.8	69	49.6	0	2	68	0.00	30.210 
08:15	59.8	59.8	59.8	68	49.2	1	3	68	0.00	30.216 
08:20	59.9	59.9	59.9	69	49.7	0	3	68	0.00	30.216 
08:25	60.1	60.1	60.1	68	49.5	1	3	68	0.00	30.216 
08:30	60.1	60.1	60.1	67	49.1	2	3	68	0.00	30.216 
08:35	60.1	60.1	60.1	68	49.5	2	5	90	0.00	30.216 
08:40	60.1	60.1	60.1	67	49.1	1	3	90	0.00	30.216 
08:45	60.4	60.4	60.4	67	49.4	1	4	90	0.00	30.221 
08:50	60.5	60.5	60.5	66	49.1	1	4	90	0.00	30.221 
08:55	60.9	60.9	60.9	64	48.6	2	6	90	0.00	30.221 
09:00	61.0	61.0	61.0	65	49.1	2	4	90	0.00	30.219 
09:05	61.2	61.2	61.2	66	49.7	2	5	90	0.00	30.219 
09:10	61.3	61.3	61.3	65	49.4	2	5	68	0.00	30.219 
09:15	61.5	61.5	61.5	65	49.6	1	3	90	0.00	30.232 
09:20	61.5	61.5	61.5	64	49.2	1	3	22	0.00	30.232 
09:25	61.6	61.6	61.6	65	49.7	2	5	90	0.00	30.232 
09:30	61.6	61.6	61.6	65	49.7	1	3	90	0.00	30.226 
09:35	61.5	61.5	61.5	63	48.8	1	3	68	0.00	30.226 
09:40	61.3	61.3	61.3	64	49.0	1	3	68	0.00	30.226 
09:45	61.3	61.3	61.3	64	49.0	0	1	68	0.00	30.233 
09:50	61.2	61.2	61.2	63	48.5	1	3	68	0.00	30.233 
09:55	61.2	61.2	61.2	62	48.1	1	3	68	0.00	30.233 
10:00	61.2	61.2	61.2	62	48.1	2	4	90	0.00	30.231 
10:05	61.3	61.3	61.3	63	48.6	1	3	90	0.00	30.231 
10:10	61.3	61.3	61.3	62	48.2	2	4	90	0.00	30.231 
10:15	61.5	61.5	61.5	61	47.9	1	3	112	0.00	30.229 
10:20	61.6	61.6	61.6	61	48.0	1	4	112	0.00	30.229 
10:25	61.8	61.8	61.8	61	48.2	1	4	112	0.00	30.229 
10:30	62.0	62.0	62.0	61	48.4	1	4	112	0.00	30.225 
10:35	62.1	62.1	62.1	62	48.9	1	3	112	0.00	30.225 
10:40	62.1	62.1	62.1	61	48.5	2	5	112	0.00	30.225 
10:45	62.1	62.1	62.1	60	48.0	1	4	90	0.00	30.223 
10:50	62.0	62.0	62.0	61	48.4	2	5	90	0.00	30.223 
10:55	62.0	62.0	62.0	61	48.4	1	2	90	0.00	30.223 
11:00	62.1	62.1	62.1	61	48.5	1	4	90	0.00	30.217 
11:05	62.1	62.1	62.1	61	48.5	1	4	135	0.00	30.217 
11:10	62.3	62.3	62.3	60	48.2	2	5	90	0.00	30.217 
11:15	62.4	62.4	62.4	60	48.3	1	3	158	0.00	30.209 
11:20	62.4	62.4	62.4	60	48.3	1	2	158	0.00	30.209 
11:25	62.6	62.6	62.6	60	48.5	0	2	158	0.00	30.209 
11:30	62.9	62.9	62.9	61	49.2	0	1	158	0.00	30.215 
11:35	63.2	63.2	63.2	60	49.1	0	2	158	0.00	30.215 
11:40	63.5	63.5	63.5	60	49.4	1	3	68	0.00	30.215 
11:45	64.0	64.0	64.0	59	49.4	1	3	68	0.00	30.218 
11:50	64.3	64.3	64.3	60	50.1	1	4	68	0.00	30.218 
11:55	64.7	64.7	64.7	59	50.0	1	2	68	0.00	30.218 
12:00	65.0	65.0	65.0	58	49.9	1	3	68	0.00	30.217 
12:05	65.5	65.5	65.5	55	48.9	1	4	68	0.00	30.217 
12:10	66.1	66.1	66.1	55	49.5	1	4	135	0.00	30.217 
12:15	67.1	67.1	67.1	54	49.9	1	4	90	0.00	30.204 
12:20	67.4	67.4	67.4	51	48.6	2	5	90	0.00	30.204 
12:25	67.4	67.4	67.4	51	48.6	3	5	90	0.00	30.204 
12:30	67.6	67.6	67.6	50	48.3	1	6	90	0.00	30.202 
12:35	68.1	68.1	68.1	48	47.7	1	3	112	0.00	30.202 
12:40	68.8	68.8	68.8	49	48.8	2	4	90	0.00	30.202 
12:45	69.3	69.3	69.3	50	49.8	1	2	90	0.00	30.199 
12:50	69.6	69.6	69.6	48	49.0	1	4	90	0.00	30.199 
12:55	69.8	69.8	69.8	47	48.6	1	3	68	0.00	30.199 
13:00	70.3	70.3	70.3	48	49.7	1	5	90	0.00	30.196 
13:05	70.8	70.8	70.8	47	49.6	1	4	90	0.00	30.196 
13:10	71.1	71.1	71.1	46	49.3	2	5	112	0.00	30.196 
13:15	71.5	71.5	71.5	46	49.6	2	4	68	0.00	30.198 
13:20	71.8	71.8	71.8	44	48.7	3	7	68	0.00	30.198 
13:25	72.5	72.5	72.5	45	49.9	2	4	90	0.00	30.198 
13:30	72.7	72.7	72.7	43	48.9	2	5	90	0.00	30.188 
13:35	73.0	73.0	73.0	43	49.2	2	6	90	0.00	30.188 
13:40	73.0	73.0	73.0	43	49.2	3	7	135	0.00	30.188 
13:45	73.3	73.3	73.3	45	50.7	1	5	112	0.00	30.177 
13:50	74.2	74.2	74.2	45	51.5	2	5	112	0.00	30.177 
13:55	74.4	74.4	74.4	42	49.8	2	6	112	0.00	30.177 
14:00	74.6	74.6	74.6	41	49.3	2	5	112	0.00	30.170 
14:05	75.1	75.1	77.5	39	48.4	2	4	90	0.00	30.170 
14:10	75.6	75.6	77.7	42	50.9	2	5	112	0.00	30.170 
14:15	76.0	76.0	77.9	41	50.6	1	3	112	0.00	30.167 
14:20	76.3	76.3	78.0	42	51.5	2	4	68	0.00	30.167 
14:25	76.5	76.5	78.0	39	49.7	1	4	68	0.00	30.167 
14:30	76.5	76.5	78.0	40	50.4	2	5	112	0.00	30.161 
14:35	76.7	76.7	78.1	39	49.9	2	7	90	0.00	30.161 
14:40	76.8	76.8	78.0	37	48.5	2	4	90	0.00	30.161 
14:45	77.0	77.0	78.3	42	52.1	2	4	90	0.00	30.160 
14:50	76.8	76.8	77.9	36	47.8	3	5	90	0.00	30.160 
14:55	76.8	76.8	78.2	41	51.3	1	5	112	0.00	30.160 
15:00	77.0	77.0	78.2	40	50.8	2	6	112	0.00	30.154 
15:05	77.0	77.0	78.2	40	50.8	2	7	90	0.00	30.154 
15:10	77.2	77.2	78.2	38	49.6	1	4	112	0.00	30.154 
15:15	77.4	77.4	78.3	37	49.1	1	4	112	0.00	30.151 
15:20	77.7	77.7	78.4	37	49.3	1	5	112	0.00	30.151 
15:25	78.3	78.3	78.6	35	48.4	1	4	112	0.00	30.151 
15:30	78.3	78.3	78.8	38	50.6	2	4	112	0.00	30.144 
15:35	78.6	78.6	78.8	36	49.4	2	7	90	0.00	30.144 
15:40	78.3	78.3	78.8	38	50.6	2	5	90	0.00	30.144 
15:45	78.3	78.3	78.7	37	49.9	2	5	90	0.00	30.135 
15:50	78.8	78.8	79.0	37	50.3	1	3	90	0.00	30.135 
15:55	79.4	79.4	79.3	37	50.8	1	2	90	0.00	30.135 
16:00	79.8	79.8	79.5	36	50.4	2	4	112	0.00	30.128 
16:05	80.1	80.1	79.7	36	50.7	1	4	112	0.00	30.128 
16:10	80.3	80.3	79.8	36	50.9	1	5	68	0.00	30.128 
16:15	80.1	80.1	79.6	35	50.0	2	7	90	0.00	30.123 
16:20	80.3	80.3	80.0	38	52.4	0	1	90	0.00	30.123 
16:25	80.7	80.7	80.0	35	50.5	1	3	135	0.00	30.123 
16:30	80.7	80.7	80.0	35	50.5	2	5	135	0.00	30.114 
16:35	80.5	80.5	79.9	35	50.3	2	4	135	0.00	30.114 
16:40	80.3	80.3	79.7	35	50.1	2	5	90	0.00	30.114 
16:45	80.5	80.5	79.9	36	51.1	2	4	90	0.00	30.111 
16:50	80.7	80.7	80.1	36	51.2	1	3	90	0.00	30.111 
16:55	80.9	80.9	80.1	35	50.7	1	5	135	0.00	30.111 
17:00	80.9	80.9	80.1	35	50.7	1	4	112	0.00	30.107 
17:05	80.9	80.9	80.1	35	50.7	1	4	90	0.00	30.107 
17:10	81.1	81.1	80.3	35	50.8	1	3	90	0.00	30.107 
17:15	81.2	81.2	80.4	36	51.7	1	4	112	0.00	30.104 
17:20	81.4	81.4	80.4	34	50.3	1	4	112	0.00	30.104 
17:25	81.4	81.4	80.6	36	51.9	1	4	112	0.00	30.104 
17:30	81.4	81.4	80.6	36	51.9	1	2	90	0.00	30.109 
17:35	81.4	81.4	80.7	37	52.6	2	6	90	0.00	30.109 
17:40	81.4	81.4	80.7	37	52.6	0	4	90	0.00	30.109 
17:45	81.6	81.6	81.0	39	54.2	1	5	68	0.00	30.102 
17:50	81.4	81.4	80.5	35	51.1	1	5	68	0.00	30.102 
17:55	81.4	81.4	80.5	35	51.1	1	2	68	0.00	30.102 
18:00	81.4	81.4	80.5	35	51.1	1	2	135	0.00	30.100 
18:05	81.2	81.2	80.3	35	50.9	1	4	112	0.00	30.100 
18:10	81.1	81.1	80.3	35	50.8	1	3	292	0.00	30.100 
18:15	81.1	81.1	80.3	35	50.8	1	3	90	0.00	30.099 
18:20	81.1	81.1	80.3	35	50.8	1	4	112	0.00	30.099 
18:25	80.9	80.9	80.1	35	50.7	0	2	112	0.00	30.099 
18:30	80.7	80.7	80.1	36	51.2	0	2	0	0.00	30.098 
18:35	80.7	80.7	79.9	34	49.7	1	5	90	0.00	30.098 
18:40	80.5	80.5	79.9	35	50.3	1	4	90	0.00	30.098 
18:45	80.7	80.7	80.3	39	53.4	0	1	90	0.00	30.094 
18:50	80.5	80.5	80.0	37	51.8	0	2	90	0.00	30.094 
18:55	80.5	80.5	80.0	37	51.8	0	2	90	0.00	30.094 
19:00	80.3	80.3	79.9	37	51.6	0	3	112	0.00	30.087 
19:05	80.3	80.3	80.0	38	52.4	0	1	112	0.00	30.087 
19:10	80.3	80.3	79.9	37	51.6	1	4	90	0.00	30.087 
19:15	80.3	80.3	79.8	36	50.9	1	2	90	0.00	30.082 
19:20	80.3	80.3	79.9	37	51.6	1	3	90	0.00	30.082 
19:25	80.1	80.1	79.8	37	51.5	0	2	90	0.00	30.082 
19:30	79.9	79.9	79.8	39	52.7	0	2	90	0.00	30.077 
19:35	79.9	79.9	79.7	38	52.0	0	2	45	0.00	30.077 
19:40	79.8	79.8	79.7	39	52.6	0	2	135	0.00	30.077 
19:45	79.6	79.6	79.6	39	52.4	1	4	112	0.00	30.074 
19:50	79.6	79.6	79.6	39	52.4	0	2	90	0.00	30.074 
19:55	79.4	79.4	79.5	39	52.3	0	1	90	0.00	30.074 
20:00	79.2	79.2	79.4	40	52.8	0	2	90	0.00	30.075 
20:05	79.0	79.0	79.4	41	53.3	0	1	90	0.00	30.075 
20:10	78.8	78.8	79.2	41	53.1	0	0	---	0.00	30.075 
20:15	78.6	78.6	79.1	41	52.9	0	2	90	0.00	30.069 
20:20	78.5	78.5	79.2	43	54.1	0	1	90	0.00	30.069 
20:25	78.3	78.3	79.1	43	53.9	0	0	---	0.00	30.069 
20:30	78.1	78.1	78.9	43	53.8	0	1	90	0.00	30.069 
20:35	77.7	77.7	78.7	43	53.4	0	1	90	0.00	30.069 
20:40	77.6	77.6	78.7	43	53.3	0	1	90	0.00	30.069 
20:45	77.4	77.4	78.6	43	53.1	0	1	90	0.00	30.069 
20:50	77.2	77.2	78.5	44	53.6	0	1	90	0.00	30.069 
20:55	76.8	76.8	78.3	44	53.2	0	0	---	0.00	30.069 
21:00	76.5	76.5	78.2	45	53.6	0	0	---	0.00	30.068 
21:05	76.1	76.1	78.0	45	53.2	0	0	---	0.00	30.068 
21:10	75.8	75.8	77.9	46	53.5	0	1	90	0.00	30.068 
21:15	75.4	75.4	77.8	47	53.7	0	0	---	0.00	30.072 
21:20	75.3	75.3	77.7	48	54.2	0	0	---	0.00	30.072 
21:25	74.7	74.7	74.7	49	54.3	0	0	---	0.00	30.072 
21:30	74.2	74.2	74.2	50	54.3	0	0	---	0.00	30.074 
21:35	73.9	73.9	73.9	50	54.1	0	0	---	0.00	30.074 
21:40	73.5	73.5	73.5	50	53.7	0	0	---	0.00	30.074 
21:45	73.3	73.3	73.3	50	53.5	0	0	---	0.00	30.078 
21:50	73.2	73.2	73.2	50	53.4	0	0	---	0.00	30.078 
21:55	73.0	73.0	73.0	51	53.8	0	0	---	0.00	30.078 
22:00	72.8	72.8	72.8	53	54.7	0	1	90	0.00	30.086 
22:05	72.5	72.5	72.5	54	54.9	0	0	---	0.00	30.086 
22:10	72.1	72.1	72.1	54	54.5	0	0	---	0.00	30.086 
22:15	71.8	71.8	71.8	54	54.2	0	0	---	0.00	30.089 
22:20	71.6	71.6	71.6	54	54.1	0	0	---	0.00	30.089 
22:25	71.5	71.5	71.5	55	54.5	0	0	---	0.00	30.089 
22:30	71.1	71.1	71.1	56	54.6	0	0	---	0.00	30.102 
22:35	70.8	70.8	70.8	58	55.3	0	0	---	0.00	30.102 
22:40	70.4	70.4	70.4	58	54.9	0	0	---	0.00	30.102 
22:45	70.1	70.1	70.1	58	54.6	0	0	---	0.00	30.104 
22:50	69.8	69.8	69.8	59	54.8	0	0	---	0.00	30.104 
22:55	69.4	69.4	69.4	59	54.4	0	0	---	0.00	30.104 
23:00	69.1	69.1	69.1	59	54.2	0	0	---	0.00	30.106 
23:05	68.9	68.9	68.9	60	54.4	0	0	---	0.00	30.106 
23:10	68.8	68.8	68.8	60	54.3	0	0	---	0.00	30.106 
23:15	68.4	68.4	68.4	60	54.0	0	0	---	0.00	30.104 
23:20	68.3	68.3	68.3	62	54.8	0	0	---	0.00	30.104 
23:25	68.3	68.3	68.3	62	54.8	0	0	---	0.00	30.104 
23:30	68.1	68.1	68.1	62	54.6	0	0	---	0.00	30.102 
23:35	68.1	68.1	68.1	62	54.6	0	0	---	0.00	30.102 
23:40	67.9	67.9	67.9	62	54.4	0	0	---	0.00	30.102 
23:45	68.1	68.1	68.1	60	53.7	0	1	90	0.00	30.097 
23:50	68.3	68.3	68.3	60	53.9	0	0	---	0.00	30.097 
23:55	68.3	68.3	68.3	60	53.9	0	0	---	0.00	30.097 

CoCoRaHS
IN-AL-39
A2 Web Hosting
Creative Commons License
GoDaddy
search engine by freefind advanced

loaded 2018-11-15 13:31:58 • last modified 2010-11-18 10:43:29
Privacy PolicyDisclaimer
• wx.awcolley.com is powered by PmWiki v.2002016 •
• all content (unless otherwise noted) © 2018 A W Colley